Delbarton, West Virginia
Current Conditions -  °F | °C
As of 10:55 PM on Wednesday 24 Dec 2014 (Local Time) from KPBX Reporting Station
Overcast Overcast  
Wind Chill: 40°   Ceiling: 1800
Heat Index: 40°   Visibility: 10mi
Dew Point: 38°   Wind: 3mph
Humidity: 93%   Direction: 260°W
Pressure: 29.8"   Gusts: NA
Location:  37.71°N, 82.18°W
Report Text: KPBX 250355Z AUTO 26003KT 10SM SCT008 BKN018 OVC022 05/04 A2980 RMK AO2 T00470036
Loading
Personal Weather Stations






























Interactive Weather Map New forecast layout! Learn more

10-Day Weather Forecast

Advertisements
Track Severe Weather on mobile